Time;durP1;ratioP1;P1;durP2;ratioP2;P2;SDS_P1;SDS_P2;PMS_P1;PMS_P2;Temp;Humidity;BMP_temperature;BMP_pressure;BME280_temperature;BME280_humidity;BME280_pressure;Samples;Min_cycle;Max_cycle;Signal;HPM_P1;HPM_P2
2021/07/20 00:00:09;;;;;;;9.55;8.73;;;;;;;24.21;72.72;100358.22;4942036;28;102527;-50
2021/07/20 00:02:38;;;;;;;22.80;11.07;;;;;;;24.22;72.58;100360.63;4946905;28;102686;-50
2021/07/20 00:05:06;;;;;;;10.57;9.40;;;;;;;24.21;72.57;100366.56;4936888;28;103934;-50
2021/07/20 00:07:33;;;;;;;10.27;9.25;;;;;;;24.20;72.73;100365.75;4946319;28;102599;-50
2021/07/20 00:10:04;;;;;;;13.20;9.00;;;;;;;24.19;72.72;100366.91;4946849;28;101988;-49
2021/07/20 00:12:32;;;;;;;10.43;8.98;;;;;;;24.20;72.53;100357.44;4946846;28;102659;-50
2021/07/20 00:14:59;;;;;;;10.02;9.13;;;;;;;24.19;72.55;100355.78;4947640;28;103855;-50
2021/07/20 00:17:28;;;;;;;9.98;9.07;;;;;;;24.18;72.48;100362.53;4939053;28;102383;-50
2021/07/20 00:19:55;;;;;;;9.63;8.73;;;;;;;24.20;72.66;100362.19;4942267;28;102380;-50
2021/07/20 00:22:21;;;;;;;9.80;8.95;;;;;;;24.19;72.51;100361.34;4944055;28;103064;-49
2021/07/20 00:24:48;;;;;;;10.75;9.65;;;;;;;24.19;72.67;100355.00;4925129;28;103619;-50
2021/07/20 00:27:16;;;;;;;9.63;8.82;;;;;;;24.19;72.43;100353.03;4942124;28;102439;-50
2021/07/20 00:29:43;;;;;;;9.70;8.90;;;;;;;24.17;72.69;100347.03;4944435;28;102209;-50
2021/07/20 00:32:10;;;;;;;11.95;9.48;;;;;;;24.19;72.53;100341.91;4946096;28;102362;-51
2021/07/20 00:34:38;;;;;;;12.02;9.60;;;;;;;24.19;72.81;100343.88;4947277;28;104224;-50
2021/07/20 00:37:05;;;;;;;10.27;9.30;;;;;;;24.17;72.52;100341.47;4946581;28;102694;-51
2021/07/20 00:39:32;;;;;;;9.88;8.95;;;;;;;24.18;72.79;100337.53;4945713;28;102671;-50
2021/07/20 00:41:59;;;;;;;10.52;9.40;;;;;;;24.18;72.77;100337.53;4940701;28;104138;-50
2021/07/20 00:44:27;;;;;;;9.80;9.00;;;;;;;24.18;72.64;100339.50;4937888;28;104069;-50
2021/07/20 00:46:54;;;;;;;9.85;8.95;;;;;;;24.18;72.83;100334.75;4947163;28;102377;-50
2021/07/20 00:49:20;;;;;;;9.43;8.52;;;;;;;24.19;72.70;100339.13;4952275;28;102517;-50
2021/07/20 00:51:47;;;;;;;10.95;8.90;;;;;;;24.18;72.68;100331.97;4949671;28;103352;-50
2021/07/20 00:54:14;;;;;;;9.77;8.80;;;;;;;24.18;72.69;100326.41;4945389;28;104143;-50
2021/07/20 00:56:42;;;;;;;9.73;8.80;;;;;;;24.17;72.94;100333.13;4943677;28;103950;-50
2021/07/20 00:59:11;;;;;;;12.93;8.98;;;;;;;24.18;72.74;100325.59;4940498;28;103588;-51
2021/07/20 01:01:39;;;;;;;10.63;9.57;;;;;;;24.18;72.69;100328.38;4940429;28;102275;-50
2021/07/20 01:04:06;;;;;;;10.07;9.18;;;;;;;24.18;72.67;100329.19;4937362;28;103662;-51
2021/07/20 01:06:34;;;;;;;9.98;9.02;;;;;;;24.17;72.70;100324.00;4939307;28;102167;-50
2021/07/20 01:09:04;;;;;;;9.98;9.07;;;;;;;24.17;72.90;100329.56;4948084;28;102303;-50
2021/07/20 01:11:33;;;;;;;9.68;8.88;;;;;;;24.17;73.00;100324.81;4954694;28;103053;-51
2021/07/20 01:14:03;;;;;;;9.65;8.85;;;;;;;24.17;72.70;100322.03;4943641;28;104227;-50
2021/07/20 01:16:31;;;;;;;10.02;9.07;;;;;;;24.17;72.74;100310.91;4950345;28;102645;-50
2021/07/20 01:19:00;;;;;;;9.98;9.10;;;;;;;24.16;72.66;100317.66;4945000;28;102361;-50
2021/07/20 01:21:27;;;;;;;9.82;8.75;;;;;;;24.15;72.77;100310.47;4946765;28;102726;-50
2021/07/20 01:23:56;;;;;;;9.55;8.65;;;;;;;24.16;72.71;100312.09;4942389;28;103867;-51
2021/07/20 01:26:22;;;;;;;;;;;;;;;24.16;72.71;100309.31;4925211;28;102329;-50
2021/07/20 01:28:51;;;;;;;10.15;9.10;;;;;;;24.15;73.03;100309.66;4946622;28;102620;-50
2021/07/20 01:31:23;;;;;;;10.82;9.05;;;;;;;24.15;73.07;100302.13;4944394;28;102516;-50
2021/07/20 01:33:53;;;;;;;9.95;9.05;;;;;;;24.15;72.78;100299.34;4943799;28;104109;-50
2021/07/20 01:36:21;;;;;;;9.60;8.80;;;;;;;24.16;72.91;100298.19;4942598;28;102586;-50
2021/07/20 01:38:51;;;;;;;9.82;8.85;;;;;;;24.14;73.00;100308.84;4948243;28;102140;-50
2021/07/20 01:41:20;;;;;;;10.15;9.15;;;;;;;24.14;72.98;100294.97;4946332;28;102537;-50
2021/07/20 01:43:51;;;;;;;10.10;9.00;;;;;;;24.17;72.96;100291.44;4943038;28;103916;-50
2021/07/20 01:46:19;;;;;;;9.35;8.55;;;;;;;24.16;72.91;100289.00;4944713;28;102353;-51
2021/07/20 01:48:48;;;;;;;10.30;8.93;;;;;;;24.16;73.00;100295.41;4943436;28;102859;-50
2021/07/20 01:51:15;;;;;;;9.75;8.90;;;;;;;24.16;72.69;100295.41;4933719;28;102816;-50
2021/07/20 01:53:42;;;;;;;10.55;9.65;;;;;;;24.15;72.88;100304.91;4950805;28;103954;-50
2021/07/20 01:56:09;;;;;;;9.63;8.82;;;;;;;24.16;72.89;100305.69;4943868;28;102283;-50
2021/07/20 01:58:42;;;;;;;9.57;8.67;;;;;;;24.15;72.89;100298.53;4944096;28;103187;-50
2021/07/20 02:01:12;;;;;;;10.27;9.38;;;;;;;24.15;73.00;100296.56;4945517;28;102417;-50
2021/07/20 02:09:01;;;;;;;10.00;9.10;;;;;;;24.15;72.67;100293.78;4937832;28;102234;-50
2021/07/20 02:11:34;;;;;;;10.05;9.05;;;;;;;24.16;72.96;100294.56;4945773;28;102638;-50
2021/07/20 02:14:08;;;;;;;9.93;8.77;;;;;;;24.16;72.79;100284.28;4945999;28;104819;-50
2021/07/20 02:16:39;;;;;;;10.02;9.02;;;;;;;24.15;73.19;100277.09;4945187;28;102500;-50
2021/07/20 02:19:11;;;;;;;10.35;9.38;;;;;;;24.15;72.98;100282.66;4944750;28;102504;-50
2021/07/20 02:21:40;;;;;;;10.10;9.20;;;;;;;24.16;72.80;100278.72;4947609;28;102592;-50
2021/07/20 02:24:07;;;;;;;10.50;9.13;;;;;;;24.16;72.98;100281.50;4944289;28;104069;-50
2021/07/20 02:26:35;;;;;;;9.77;8.88;;;;;;;24.16;72.86;100277.91;4948349;28;102191;-50
2021/07/20 02:29:04;;;;;;;9.82;9.02;;;;;;;24.13;73.13;100279.47;4948595;28;102436;-50
2021/07/20 02:31:32;;;;;;;9.85;8.75;;;;;;;24.15;72.96;100281.84;4955754;28;102442;-50
2021/07/20 02:34:00;;;;;;;8.95;8.15;;;;;;;24.13;72.92;100276.69;4948433;28;103953;-50
2021/07/20 02:36:28;;;;;;;9.88;8.98;;;;;;;24.14;72.79;100286.63;4956097;28;102147;-50
2021/07/20 02:38:56;;;;;;;10.95;9.80;;;;;;;24.15;72.96;100279.88;4961308;28;102733;-50
2021/07/20 02:41:25;;;;;;;9.70;8.82;;;;;;;24.16;72.83;100283.44;4959115;28;102210;-51
2021/07/20 02:43:53;;;;;;;10.25;9.30;;;;;;;24.13;72.88;100279.47;4961521;28;102990;-51
2021/07/20 02:46:21;;;;;;;10.20;9.30;;;;;;;24.14;73.09;100275.50;4956509;28;102313;-51
2021/07/20 02:48:50;;;;;;;9.43;8.63;;;;;;;24.13;72.84;100273.91;4951786;28;102601;-51
2021/07/20 02:51:21;;;;;;;10.63;9.73;;;;;;;24.12;72.92;100272.28;4951513;28;102605;-50
2021/07/20 02:53:51;;;;;;;9.82;8.93;;;;;;;24.13;72.99;100278.66;4955893;28;104177;-51
2021/07/20 02:56:18;;;;;;;9.48;8.68;;;;;;;24.14;72.82;100281.06;4951014;28;102007;-51
2021/07/20 02:58:48;;;;;;;9.32;8.40;;;;;;;24.12;72.90;100280.63;4951644;28;102322;-51
2021/07/20 03:01:15;;;;;;;9.85;8.95;;;;;;;24.13;72.94;100282.25;4948038;28;103618;-51
2021/07/20 03:03:44;;;;;;;9.82;8.85;;;;;;;24.14;72.90;100292.19;4946615;28;103921;-51
2021/07/20 03:06:12;;;;;;;10.05;9.15;;;;;;;24.14;72.93;100281.06;4949604;28;102794;-51
2021/07/20 03:08:41;;;;;;;10.65;9.18;;;;;;;24.15;73.07;100285.44;4956832;28;102519;-51
2021/07/20 03:11:08;;;;;;;;;;;;;;;24.15;72.97;100291.00;4961106;28;102355;-51
2021/07/20 03:13:39;;;;;;;10.43;9.43;;;;;;;24.15;72.87;100293.78;4946922;28;102999;-51
2021/07/20 03:16:08;;;;;;;10.15;8.82;;;;;;;24.14;73.13;100292.19;4947373;28;102472;-51
2021/07/20 03:18:37;;;;;;;9.93;8.93;;;;;;;24.15;73.00;100295.75;4941688;28;102352;-51
2021/07/20 03:21:06;;;;;;;9.48;8.68;;;;;;;24.15;73.19;100299.34;4942731;28;102645;-51
2021/07/20 03:23:34;;;;;;;9.30;8.50;;;;;;;24.15;73.17;100299.34;4946853;28;103027;-50
2021/07/20 03:26:01;;;;;;;9.43;8.63;;;;;;;24.15;72.86;100304.91;4946957;28;102753;-50
2021/07/20 03:28:28;;;;;;;9.65;8.75;;;;;;;24.15;72.73;100299.34;4944797;28;102569;-51
2021/07/20 03:30:56;;;;;;;9.73;8.82;;;;;;;24.15;72.91;100302.13;4961077;28;103509;-50
2021/07/20 03:33:23;;;;;;;9.55;8.70;;;;;;;24.15;72.98;100307.69;4946584;28;103883;-50
2021/07/20 03:35:51;;;;;;;9.03;8.23;;;;;;;24.16;73.04;100314.88;4947433;28;102498;-50
2021/07/20 03:38:20;;;;;;;9.50;8.60;;;;;;;24.16;73.01;100306.53;4930376;28;102474;-50
2021/07/20 03:40:50;;;;;;;9.90;9.00;;;;;;;24.16;72.87;100300.97;4948902;28;102205;-50
2021/07/20 03:43:22;;;;;;;11.07;8.95;;;;;;;24.16;72.95;100306.53;4944157;28;103926;-50
2021/07/20 03:45:49;;;;;;;9.93;9.02;;;;;;;24.16;72.81;100317.66;4945587;28;102375;-51
2021/07/20 03:48:34;;;;;;;9.75;8.70;;;;;;;24.16;72.80;100316.81;4948381;28;102700;-51
2021/07/20 03:51:02;;;;;;;9.60;8.60;;;;;;;24.16;72.82;100312.09;4950142;28;102268;-50
2021/07/20 03:53:32;;;;;;;9.45;8.55;;;;;;;24.16;72.88;100314.88;4947402;28;104113;-50
2021/07/20 03:56:01;;;;;;;9.93;9.02;;;;;;;24.17;72.90;100324.81;4948789;28;101989;-50
2021/07/20 03:58:28;;;;;;;9.77;8.77;;;;;;;24.17;72.83;100321.22;4943473;28;102438;-50
2021/07/20 04:00:58;;;;;;;9.77;8.80;;;;;;;24.18;73.02;100320.03;4942215;28;102335;-51
2021/07/20 04:03:27;;;;;;;9.52;8.52;;;;;;;24.17;72.94;100319.25;4959848;28;103927;-50
2021/07/20 04:05:56;;;;;;;9.70;8.82;;;;;;;24.18;72.89;100328.38;4948060;28;102162;-51
2021/07/20 04:08:25;;;;;;;11.07;9.35;;;;;;;24.18;72.76;100326.41;4945286;28;102186;-50
2021/07/20 04:10:55;;;;;;;9.60;8.70;;;;;;;24.17;72.71;100322.03;4943546;28;102815;-51
2021/07/20 04:13:22;;;;;;;10.30;9.23;;;;;;;24.18;72.67;100323.63;4941415;28;103923;-51
2021/07/20 04:15:53;;;;;;;9.52;8.73;;;;;;;24.18;73.06;100320.84;4945650;28;102438;-51
2021/07/20 04:18:20;;;;;;;9.70;8.80;;;;;;;24.18;72.60;100320.84;4941356;28;102763;-51
2021/07/20 04:20:48;;;;;;;10.32;9.43;;;;;;;24.18;72.92;100320.84;4940491;28;102285;-50
2021/07/20 04:23:15;;;;;;;10.00;9.10;;;;;;;24.19;72.95;100321.63;4944096;28;103867;-50
2021/07/20 04:25:47;;;;;;;9.68;8.63;;;;;;;24.19;73.04;100322.44;4946437;28;102602;-50
2021/07/20 04:28:26;;;;;;;11.02;8.95;;;;;;;24.19;73.05;100327.19;4950714;28;103838;-51
2021/07/20 04:30:54;;;;;;;10.05;9.15;;;;;;;24.20;72.65;100326.03;4955708;28;102665;-53
2021/07/20 04:33:27;;;;;;;12.18;9.23;;;;;;;24.20;72.91;100328.81;4946813;28;103926;-51
2021/07/20 04:35:54;;;;;;;9.55;8.65;;;;;;;24.20;72.96;100326.84;4933855;28;102036;-50
2021/07/20 04:38:22;;;;;;;11.68;9.65;;;;;;;24.21;72.73;100320.09;4941986;28;102283;-51
2021/07/20 04:40:49;;;;;;;9.18;8.27;;;;;;;24.20;72.76;100326.03;4947843;28;102694;-50
2021/07/20 04:43:16;;;;;;;9.15;8.25;;;;;;;24.22;72.64;100332.81;4941188;28;102810;-50
2021/07/20 04:45:46;;;;;;;10.57;9.57;;;;;;;24.24;72.92;100331.66;4946339;28;102495;-50
2021/07/20 04:48:14;;;;;;;10.80;9.73;;;;;;;24.23;72.82;100325.28;4941837;28;102164;-50
2021/07/20 04:50:42;;;;;;;10.15;9.15;;;;;;;24.24;72.94;100320.53;4940457;28;102229;-51
2021/07/20 04:53:09;;;;;;;10.20;9.02;;;;;;;24.24;72.86;100320.53;4944132;28;103890;-50
2021/07/20 04:55:38;;;;;;;10.17;9.17;;;;;;;24.25;72.75;100330.47;4946376;28;102617;-51
2021/07/20 04:58:05;;;;;;;10.27;9.35;;;;;;;24.23;72.45;100319.72;4946643;28;102225;-51
2021/07/20 05:00:32;;;;;;;11.00;9.88;;;;;;;24.25;72.83;100324.91;4944566;28;102663;-50
2021/07/20 05:03:03;;;;;;;10.60;9.52;;;;;;;24.25;73.04;100319.34;4945567;28;104065;-50
2021/07/20 05:05:31;;;;;;;11.23;10.13;;;;;;;24.25;72.95;100320.16;4947401;28;102211;-50
2021/07/20 05:08:00;;;;;;;10.67;9.63;;;;;;;24.26;72.64;100321.75;4948679;28;102759;-50
2021/07/20 05:10:26;;;;;;;10.77;9.80;;;;;;;24.27;72.87;100316.97;4939879;28;102591;-50
2021/07/20 05:12:53;;;;;;;11.02;9.90;;;;;;;24.27;72.93;100316.97;4942532;28;103070;-51
2021/07/20 05:15:20;;;;;;;10.52;9.48;;;;;;;24.28;72.75;100319.41;4943284;28;102305;-51
2021/07/20 05:17:47;;;;;;;10.55;9.55;;;;;;;24.30;72.69;100321.81;4937034;28;103183;-50
2021/07/20 05:20:17;;;;;;;10.40;9.40;;;;;;;24.32;72.77;100316.69;4948840;28;102428;-50
2021/07/20 05:22:45;;;;;;;10.20;9.18;;;;;;;24.31;72.59;100318.66;4936728;28;104053;-50
2021/07/20 05:25:13;;;;;;;11.73;10.52;;;;;;;24.32;72.74;100325.03;4940864;28;102097;-50
2021/07/20 05:27:43;;;;;;;13.15;10.15;;;;;;;24.33;72.87;100321.84;4944975;28;102466;-50
2021/07/20 05:30:11;;;;;;;10.50;9.45;;;;;;;24.34;72.86;100317.09;4937815;28;102212;-51
2021/07/20 05:32:39;;;;;;;11.38;10.35;;;;;;;24.35;72.69;100327.06;4943742;28;104050;-50
2021/07/20 05:35:08;;;;;;;;;;;;;;;24.36;72.80;100331.44;4955758;28;102174;-51
2021/07/20 05:37:37;;;;;;;11.07;10.02;;;;;;;24.36;72.54;100323.88;4941574;28;102396;-50
2021/07/20 05:40:04;;;;;;;;;;;;;;;24.38;72.39;100329.09;4942988;28;102435;-51
2021/07/20 05:42:31;;;;;;;10.73;9.73;;;;;;;24.39;72.59;100331.53;4941799;28;103330;-50
2021/07/20 05:44:58;;;;;;;11.40;10.30;;;;;;;24.39;72.80;100337.09;4939830;28;103360;-50
2021/07/20 05:47:26;;;;;;;11.07;10.02;;;;;;;24.41;72.66;100339.47;4944230;28;102211;-50
2021/07/20 05:49:53;;;;;;;11.30;9.85;;;;;;;24.42;72.69;100329.97;4959256;28;102506;-50
2021/07/20 05:52:21;;;;;;;11.77;10.65;;;;;;;24.43;72.80;100337.13;4946332;28;103914;-50
2021/07/20 05:54:50;;;;;;;10.63;9.70;;;;;;;24.45;72.60;100337.56;4941303;28;102686;-50
2021/07/20 05:57:17;;;;;;;11.10;9.95;;;;;;;24.46;72.44;100336.38;4947391;28;105783;-50
2021/07/20 05:59:44;;;;;;;11.30;10.20;;;;;;;24.48;72.56;100336.00;4953930;28;102481;-50
2021/07/20 06:02:12;;;;;;;11.82;10.45;;;;;;;24.49;72.61;100338.44;4945067;28;104041;-50
2021/07/20 06:04:40;;;;;;;11.32;10.25;;;;;;;24.49;72.72;100335.66;4946664;28;102553;-50
2021/07/20 06:07:09;;;;;;;11.70;10.53;;;;;;;24.51;72.61;100338.03;4943947;28;103185;-51
2021/07/20 06:09:36;;;;;;;11.25;10.15;;;;;;;24.52;72.78;100334.88;4956088;28;102249;-51
2021/07/20 06:12:08;;;;;;;11.70;10.50;;;;;;;24.55;72.61;100338.88;4951092;28;105038;-50
2021/07/20 06:14:36;;;;;;;11.77;10.63;;;;;;;24.57;72.50;100345.69;4942143;28;102591;-50
2021/07/20 06:17:03;;;;;;;11.55;10.30;;;;;;;24.59;72.33;100339.75;4942796;28;102507;-51
2021/07/20 06:19:31;;;;;;;11.18;9.98;;;;;;;24.59;72.70;100340.53;4948873;28;102390;-51
2021/07/20 06:21:59;;;;;;;11.95;10.85;;;;;;;24.59;72.59;100329.41;4947098;28;103910;-51
2021/07/20 06:24:28;;;;;;;10.93;9.82;;;;;;;24.60;72.68;100342.16;4943879;28;102561;-50
2021/07/20 06:26:56;;;;;;;11.95;10.63;;;;;;;24.61;72.53;100342.97;4952767;28;102537;-51
2021/07/20 06:29:25;;;;;;;;;;;;;;;24.63;72.48;100335.84;4956796;28;102433;-50
2021/07/20 06:31:52;;;;;;;;;;;;;;;24.65;72.56;100333.47;4943335;28;103835;-51
2021/07/20 06:34:20;;;;;;;11.93;10.73;;;;;;;24.68;72.49;100329.16;4946321;28;102524;-51
2021/07/20 06:36:47;;;;;;;10.65;9.70;;;;;;;24.72;72.46;100318.06;4941946;28;102638;-50
2021/07/20 06:39:14;;;;;;;10.52;9.52;;;;;;;24.74;72.39;100319.31;4947492;28;102313;-50
2021/07/20 06:41:41;;;;;;;13.90;11.43;;;;;;;24.76;72.32;100310.56;4954423;28;104101;-50
2021/07/20 06:44:08;;;;;;;12.45;10.75;;;;;;;24.77;72.37;100317.72;4945308;28;102423;-50
2021/07/20 06:46:37;;;;;;;12.95;11.32;;;;;;;24.77;72.49;100318.53;4947504;28;102494;-51
2021/07/20 06:49:04;;;;;;;12.70;11.32;;;;;;;24.78;72.24;100313.78;4938695;28;102434;-51
2021/07/20 06:51:31;;;;;;;11.60;10.50;;;;;;;24.76;72.15;100322.50;4940269;28;103921;-50
2021/07/20 06:53:58;;;;;;;11.80;10.60;;;;;;;24.76;72.22;100321.69;4947116;28;102604;-51
2021/07/20 06:56:28;;;;;;;11.70;10.50;;;;;;;24.76;72.18;100327.25;4949854;28;102199;-51
2021/07/20 06:58:56;;;;;;;11.82;10.73;;;;;;;24.80;72.51;100328.09;4946523;28;102961;-50
2021/07/20 07:01:27;;;;;;;12.35;11.05;;;;;;;24.82;72.21;100323.78;4927709;28;103974;-50
2021/07/20 07:04:01;;;;;;;15.18;11.55;;;;;;;24.83;72.28;100321.78;4955662;28;102171;-51
2021/07/20 07:06:30;;;;;;;11.82;10.63;;;;;;;24.83;72.10;100314.25;4944098;28;102494;-51
2021/07/20 07:08:58;;;;;;;11.85;10.65;;;;;;;24.83;72.25;100316.22;4948687;28;102540;-51
2021/07/20 07:11:28;;;;;;;11.80;10.60;;;;;;;24.83;72.13;100321.78;4933301;28;104011;-50
2021/07/20 07:13:55;;;;;;;12.43;11.20;;;;;;;24.85;72.38;100322.22;4945073;28;102550;-51
2021/07/20 07:16:23;;;;;;;14.60;11.70;;;;;;;24.86;72.31;100321.03;4945060;28;102200;-50
2021/07/20 07:18:51;;;;;;;12.27;11.07;;;;;;;24.89;72.14;100317.50;4938936;28;103670;-51
2021/07/20 07:21:20;;;;;;;13.07;10.70;;;;;;;24.89;72.16;100321.09;4945091;28;104021;-51
2021/07/20 07:23:50;;;;;;;13.65;11.55;;;;;;;24.91;72.20;100318.72;4952004;28;102236;-51
2021/07/20 07:26:18;;;;;;;12.50;11.20;;;;;;;24.94;72.27;100317.16;4943352;28;102834;-51
2021/07/20 07:28:48;;;;;;;14.45;12.05;;;;;;;24.94;72.21;100323.53;4943444;28;103517;-50
2021/07/20 07:31:16;;;;;;;12.93;11.38;;;;;;;24.93;72.15;100310.00;4945571;28;103771;-51
2021/07/20 07:33:43;;;;;;;12.85;11.55;;;;;;;24.95;72.03;100324.31;4947605;28;102382;-50
2021/07/20 07:36:11;;;;;;;12.57;11.30;;;;;;;24.94;72.04;100319.94;4950813;28;103549;-51
2021/07/20 07:38:41;;;;;;;15.80;12.73;;;;;;;24.96;72.10;100309.25;4942890;28;106327;-50
2021/07/20 07:41:08;;;;;;;13.60;12.27;;;;;;;24.97;71.99;100305.28;4948813;28;105880;-50
2021/07/20 07:43:38;;;;;;;12.70;11.32;;;;;;;24.99;72.20;100308.47;4950589;28;102339;-50
2021/07/20 07:46:06;;;;;;;12.50;11.30;;;;;;;25.02;72.18;100306.91;4949265;28;102610;-50
2021/07/20 07:48:36;;;;;;;12.82;11.63;;;;;;;25.04;72.14;100305.34;4947390;28;102553;-50
2021/07/20 07:51:04;;;;;;;15.10;13.18;;;;;;;25.02;72.07;100313.28;4958739;28;105158;-51
2021/07/20 07:53:32;;;;;;;14.98;11.73;;;;;;;25.02;71.97;100306.91;4967982;28;101816;-51
2021/07/20 07:56:01;;;;;;;13.73;12.32;;;;;;;25.01;71.86;100308.09;4966672;28;102696;-51
2021/07/20 07:58:31;;;;;;;13.18;11.77;;;;;;;25.02;72.10;100318.84;4956204;28;102549;-52
2021/07/20 08:00:59;;;;;;;13.25;11.95;;;;;;;25.03;71.93;100303.75;4961335;28;104036;-51
2021/07/20 08:03:27;;;;;;;13.77;12.30;;;;;;;25.02;72.00;100313.28;4940942;28;102778;-50
2021/07/20 08:05:54;;;;;;;13.93;11.85;;;;;;;25.03;71.73;100305.72;4947804;28;102578;-51
2021/07/20 08:08:21;;;;;;;13.13;11.93;;;;;;;25.02;71.85;100306.91;4946424;28;102248;-51
2021/07/20 08:10:50;;;;;;;13.68;12.27;;;;;;;25.02;71.80;100309.69;4948887;28;104128;-51
2021/07/20 08:13:19;;;;;;;14.48;12.13;;;;;;;25.00;71.99;100304.53;4955541;28;102408;-51
2021/07/20 08:15:56;;;;;;;16.65;12.05;;;;;;;25.00;71.99;100298.16;4947922;28;102546;-51
2021/07/20 08:18:24;;;;;;;13.20;11.95;;;;;;;24.99;71.73;100297.31;4942528;28;103271;-51
2021/07/20 08:21:06;;;;;;;15.27;12.45;;;;;;;25.01;71.99;100300.53;4940363;28;103833;-51
2021/07/20 08:23:36;;;;;;;13.98;11.70;;;;;;;25.03;71.50;100291.81;4938269;28;102668;-50
2021/07/20 08:26:06;;;;;;;14.25;12.75;;;;;;;25.00;71.93;100287.81;4946696;28;102060;-51
2021/07/20 08:28:41;;;;;;;14.15;12.45;;;;;;;25.01;71.93;100283.03;4921609;28;102953;-51
2021/07/20 08:31:09;;;;;;;12.77;11.55;;;;;;;25.01;71.82;100299.75;4947479;28;104376;-51
2021/07/20 08:33:37;;;;;;;13.40;12.13;;;;;;;25.01;71.81;100289.41;4949642;28;102227;-51
2021/07/20 08:36:07;;;;;;;13.20;11.80;;;;;;;25.02;71.83;100291.00;4951555;28;102479;-50
2021/07/20 08:38:35;;;;;;;13.65;11.93;;;;;;;25.04;72.02;100285.88;4954824;28;102402;-50
2021/07/20 08:41:14;;;;;;;13.32;11.93;;;;;;;25.06;71.85;100283.50;4948773;28;102888;-51
2021/07/20 08:43:56;;;;;;;13.57;12.23;;;;;;;25.05;71.72;100284.69;4939293;28;102230;-51
2021/07/20 08:46:41;;;;;;;13.38;12.02;;;;;;;25.03;71.68;100270.34;4947197;28;102182;-51
2021/07/20 08:49:20;;;;;;;14.13;11.95;;;;;;;25.03;71.62;100269.53;4947389;28;102278;-51
2021/07/20 08:51:57;;;;;;;13.93;12.45;;;;;;;25.03;71.71;100273.13;4937276;28;103758;-50
2021/07/20 08:54:27;;;;;;;14.90;13.20;;;;;;;25.06;71.69;100269.56;4955499;28;103256;-51
2021/07/20 08:56:59;;;;;;;16.70;12.50;;;;;;;25.05;71.78;100262.41;4955127;28;105446;-51
2021/07/20 08:59:37;;;;;;;13.43;12.02;;;;;;;25.03;71.80;100263.97;4954027;28;102290;-51
2021/07/20 09:02:28;;;;;;;13.10;11.85;;;;;;;25.03;71.69;100261.19;4952633;28;104225;-51
2021/07/20 09:05:02;;;;;;;13.73;12.43;;;;;;;25.03;71.71;100262.00;4947070;28;102635;-50
2021/07/20 09:07:37;;;;;;;13.48;12.05;;;;;;;25.05;71.67;100256.84;4945807;28;102351;-50
2021/07/20 09:10:08;;;;;;;13.70;12.30;;;;;;;25.05;71.65;100261.63;4950320;28;102307;-51
2021/07/20 09:12:38;;;;;;;13.32;11.88;;;;;;;25.03;71.68;100250.88;4946859;28;103699;-51
2021/07/20 09:15:09;;;;;;;14.15;12.70;;;;;;;25.02;71.66;100257.59;4941055;28;102923;-51
2021/07/20 09:17:42;;;;;;;14.00;12.45;;;;;;;25.03;71.54;100242.53;4938151;28;102475;-50
2021/07/20 09:20:13;;;;;;;13.15;11.95;;;;;;;25.03;71.72;100248.09;4948074;28;102531;-51
2021/07/20 09:22:47;;;;;;;13.82;12.57;;;;;;;25.02;71.69;100240.09;4940130;28;104147;-51
2021/07/20 09:25:17;;;;;;;14.10;12.65;;;;;;;25.02;71.83;100237.31;4944640;28;102578;-51
2021/07/20 09:27:53;;;;;;;13.32;12.02;;;;;;;25.04;71.78;100240.53;4941755;28;102924;-51
2021/07/20 09:30:24;;;;;;;14.07;12.70;;;;;;;25.04;71.77;100232.97;4940101;28;102654;-50
2021/07/20 09:33:05;;;;;;;14.32;12.95;;;;;;;25.03;71.77;100236.94;4944688;28;104026;-50
2021/07/20 09:35:39;;;;;;;14.27;12.88;;;;;;;25.06;71.79;100232.59;4940550;28;102063;-51
2021/07/20 09:38:11;;;;;;;14.48;13.07;;;;;;;25.07;71.71;100232.22;4951018;28;102207;-50
2021/07/20 09:40:48;;;;;;;13.38;12.15;;;;;;;25.08;71.64;100231.03;4946409;28;102577;-50
2021/07/20 09:43:26;;;;;;;13.77;12.48;;;;;;;25.09;71.88;100224.25;4943599;28;103769;-51
2021/07/20 09:46:00;;;;;;;13.95;12.63;;;;;;;25.07;71.86;100221.09;4951909;28;102512;-51
2021/07/20 09:48:32;;;;;;;14.43;13.02;;;;;;;25.04;71.58;100216.28;4938675;28;102420;-51
2021/07/20 09:51:10;;;;;;;14.63;13.23;;;;;;;25.03;71.81;100214.69;4958063;28;102588;-51
2021/07/20 09:53:59;;;;;;;14.73;13.32;;;;;;;25.02;71.81;100221.41;4944530;28;103884;-51
2021/07/20 09:56:40;;;;;;;14.57;13.18;;;;;;;25.03;71.88;100219.41;4943825;28;102043;-51
2021/07/20 09:59:20;;;;;;;13.43;12.20;;;;;;;25.04;71.58;100204.34;4947324;28;102173;-51
2021/07/20 10:01:54;;;;;;;15.23;13.35;;;;;;;25.03;71.49;100209.13;4947958;28;101959;-50
2021/07/20 10:04:28;;;;;;;15.43;13.80;;;;;;;25.02;71.63;100213.06;4948524;28;103920;-51
2021/07/20 10:07:01;;;;;;;14.50;13.15;;;;;;;25.01;71.75;100199.53;4942565;28;102538;-50
2021/07/20 10:09:36;;;;;;;14.85;13.45;;;;;;;25.00;71.62;100204.31;4945722;28;103880;-50
2021/07/20 10:12:10;;;;;;;15.32;13.75;;;;;;;25.00;71.57;100204.31;4945412;28;105226;-51
2021/07/20 10:14:44;;;;;;;14.40;12.98;;;;;;;25.00;71.50;100198.72;4941653;28;103853;-50
2021/07/20 10:17:20;;;;;;;13.88;12.60;;;;;;;25.00;71.62;100197.94;4944531;28;102711;-50
2021/07/20 10:19:52;;;;;;;14.15;12.80;;;;;;;25.00;71.66;100193.16;4949767;28;102137;-51
2021/07/20 10:22:26;;;;;;;13.57;12.38;;;;;;;25.03;71.80;100197.97;4949490;28;102469;-51
2021/07/20 10:24:59;;;;;;;13.57;12.38;;;;;;;25.05;71.61;100184.47;4945188;28;104117;-51
2021/07/20 10:27:31;;;;;;;15.23;13.82;;;;;;;25.05;71.65;100195.59;4942378;28;102699;-50
2021/07/20 10:30:03;;;;;;;13.90;12.60;;;;;;;25.06;71.51;100186.06;4958952;28;102633;-51
2021/07/20 10:32:45;;;;;;;14.20;13.07;;;;;;;25.07;71.78;100186.88;4948429;28;103185;-50
2021/07/20 10:35:18;;;;;;;14.50;13.10;;;;;;;25.08;71.55;100186.47;4942079;28;104128;-50
2021/07/20 10:37:48;;;;;;;14.73;13.32;;;;;;;25.08;71.52;100180.13;4946736;28;102743;-50
2021/07/20 10:40:18;;;;;;;14.40;13.10;;;;;;;25.08;71.67;100174.56;4945383;28;102545;-51
2021/07/20 10:42:50;;;;;;;14.60;13.13;;;;;;;25.08;71.72;100180.13;4951950;28;102549;-50
2021/07/20 10:45:18;;;;;;;15.40;14.00;;;;;;;25.08;71.70;100177.34;4943462;28;103903;-50
2021/07/20 10:47:51;;;;;;;14.13;12.82;;;;;;;25.08;71.56;100180.91;4949441;28;102480;-50
2021/07/20 10:50:25;;;;;;;14.95;13.45;;;;;;;25.09;71.72;100179.72;4938193;28;102395;-51
2021/07/20 10:53:07;;;;;;;15.30;13.98;;;;;;;25.06;71.58;100174.91;4945108;28;102755;-50
2021/07/20 10:55:47;;;;;;;15.35;13.95;;;;;;;25.07;71.73;100176.53;4942715;28;103987;-51
2021/07/20 10:58:25;;;;;;;15.80;14.35;;;;;;;25.06;71.78;100172.13;4942451;28;102350;-50
2021/07/20 11:00:55;;;;;;;;;;;;;;;25.06;71.40;100169.34;4947329;28;102833;-50
2021/07/20 11:03:31;;;;;;;16.65;14.95;;;;;;;25.05;71.62;100170.53;4946556;28;103660;-50
2021/07/20 11:06:01;;;;;;;15.90;14.35;;;;;;;25.04;71.63;100168.16;4937793;28;104022;-51
2021/07/20 11:08:30;;;;;;;17.58;16.08;;;;;;;25.03;71.40;100167.34;4950944;28;102461;-50
2021/07/20 11:11:00;;;;;;;16.98;15.35;;;;;;;25.01;71.50;100166.91;4945919;28;102681;-50
2021/07/20 11:13:31;;;;;;;17.25;15.57;;;;;;;25.01;71.52;100168.91;4946469;28;102661;-51
2021/07/20 11:16:56;;;;;;;17.33;15.70;;;;;;;25.01;71.57;100172.50;4944131;28;103896;-50
2021/07/20 11:19:29;;;;;;;16.77;15.27;;;;;;;25.03;71.71;100164.56;4946621;28;102595;-51
2021/07/20 11:21:57;;;;;;;17.45;15.85;;;;;;;25.03;71.52;100163.75;4943240;28;102415;-51
2021/07/20 11:24:24;;;;;;;17.33;15.70;;;;;;;25.03;71.48;100156.22;4948870;28;102280;-51
2021/07/20 11:26:51;;;;;;;17.30;15.77;;;;;;;25.03;71.63;100158.16;4948722;28;103748;-51